Time;durP1;ratioP1;P1;durP2;ratioP2;P2;SDS_P1;SDS_P2;PMS_P1;PMS_P2;Temp;Humidity;BMP_temperature;BMP_pressure;BME280_temperature;BME280_humidity;BME280_pressure;Samples;Min_cycle;Max_cycle;Signal;HPM_P1;HPM_P2
2021/12/15 00:02:10;;;;;;;28.35;19.58;;;;;;;;;;5080373;28;20193;-66
2021/12/15 00:04:36;;;;;;;32.08;20.42;;;;;;;;;;5063498;28;20239;-68
2021/12/15 00:07:04;;;;;;;29.20;20.00;;;;;;;;;;5063615;28;20205;-68
2021/12/15 00:09:31;;;;;;;27.45;19.45;;;;;;;;;;5063175;28;20204;-68
2021/12/15 00:11:57;;;;;;;30.30;20.73;;;;;;;;;;5080329;28;20196;-68
2021/12/15 00:14:24;;;;;;;29.65;20.35;;;;;;;;;;5083069;28;20220;-68
2021/12/15 00:16:50;;;;;;;32.50;20.83;;;;;;;;;;5068629;28;20284;-68
2021/12/15 00:19:17;;;;;;;34.97;22.25;;;;;;;;;;5063561;28;20532;-68
2021/12/15 00:21:44;;;;;;;33.70;20.55;;;;;;;;;;5063407;28;20490;-68
2021/12/15 00:24:12;;;;;;;29.40;20.05;;;;;;;;;;5063129;28;20201;-68
2021/12/15 00:26:39;;;;;;;33.38;21.25;;;;;;;;;;5063897;28;20204;-68
2021/12/15 00:29:06;;;;;;;32.25;19.77;;;;;;;;;;5062960;28;20197;-68
2021/12/15 00:31:33;;;;;;;30.27;20.17;;;;;;;;;;5063095;28;20209;-68
2021/12/15 00:33:59;;;;;;;30.80;20.38;;;;;;;;;;5062905;28;20284;-66
2021/12/15 00:36:26;;;;;;;31.52;19.70;;;;;;;;;;5072536;28;20196;-66
2021/12/15 00:38:52;;;;;;;29.05;19.63;;;;;;;;;;5083314;28;20211;-66
2021/12/15 00:41:20;;;;;;;29.48;19.92;;;;;;;;;;5082945;28;20333;-68
2021/12/15 00:43:47;;;;;;;32.72;20.17;;;;;;;;;;5084067;28;20193;-68
2021/12/15 00:46:13;;;;;;;28.63;19.00;;;;;;;;;;5075376;28;20217;-68
2021/12/15 00:48:40;;;;;;;30.58;20.35;;;;;;;;;;5063596;28;20504;-68
2021/12/15 00:51:07;;;;;;;29.48;18.52;;;;;;;;;;5063788;28;20209;-66
2021/12/15 00:53:33;;;;;;;29.55;19.13;;;;;;;;;;5062441;28;20235;-66
2021/12/15 00:55:59;;;;;;;27.65;17.88;;;;;;;;;;5076193;28;20201;-66
2021/12/15 00:58:27;;;;;;;26.42;17.83;;;;;;;;;;5062651;28;20197;-66
2021/12/15 01:00:55;;;;;;;26.13;18.38;;;;;;;;;;5062770;28;20224;-66
2021/12/15 01:03:21;;;;;;;29.13;18.27;;;;;;;;;;5062469;28;20216;-66
2021/12/15 01:05:49;;;;;;;26.10;17.10;;;;;;;;;;5065897;28;20196;-66
2021/12/15 01:08:17;;;;;;;23.08;16.17;;;;;;;;;;5082835;28;20399;-68
2021/12/15 01:10:58;;;;;;;22.30;16.15;;;;;;;;;;5082327;28;20196;-68
2021/12/15 01:21:43;;;;;;;22.02;14.57;;;;;;;;;;5047861;28;20193;-68
2021/12/15 01:24:10;;;;;;;19.52;14.27;;;;;;;;;;5082604;28;20201;-68
2021/12/15 01:26:37;;;;;;;19.73;13.90;;;;;;;;;;5071536;28;20193;-68
2021/12/15 01:29:03;;;;;;;17.17;13.52;;;;;;;;;;5062448;28;20370;-67
2021/12/15 01:31:31;;;;;;;17.70;13.07;;;;;;;;;;5061975;28;20203;-66
2021/12/15 01:33:58;;;;;;;16.83;13.23;;;;;;;;;;5061942;28;20221;-66
2021/12/15 01:36:24;;;;;;;18.50;13.68;;;;;;;;;;5070650;28;20192;-68
2021/12/15 01:38:51;;;;;;;20.83;14.63;;;;;;;;;;5082883;28;20196;-68
2021/12/15 01:41:21;;;;;;;19.77;14.23;;;;;;;;;;5082170;28;20221;-68
2021/12/15 01:46:52;;;;;;;20.80;14.75;;;;;;;;;;5082140;28;20219;-68
2021/12/15 01:46:58;;;;;;;23.13;15.88;;;;;;;;;;5071712;28;20228;-68
2021/12/15 01:49:28;;;;;;;26.13;17.35;;;;;;;;;;5061949;28;20197;-66
2021/12/15 01:51:55;;;;;;;25.15;17.27;;;;;;;;;;5081369;28;20511;-66
2021/12/15 01:54:24;;;;;;;27.58;19.42;;;;;;;;;;5085446;28;20223;-66
2021/12/15 01:56:51;;;;;;;27.05;17.73;;;;;;;;;;5074744;28;20197;-68
2021/12/15 01:59:19;;;;;;;28.67;18.52;;;;;;;;;;5067019;28;20197;-68
2021/12/15 02:01:46;;;;;;;29.15;18.90;;;;;;;;;;5066639;28;20505;-66
2021/12/15 02:04:16;;;;;;;27.17;18.50;;;;;;;;;;5065706;28;20204;-66
2021/12/15 02:06:44;;;;;;;28.85;19.75;;;;;;;;;;5075614;28;20196;-66
2021/12/15 02:09:11;;;;;;;26.17;19.00;;;;;;;;;;5086812;28;20219;-68
2021/12/15 02:11:37;;;;;;;29.35;19.95;;;;;;;;;;5086791;28;20200;-68
2021/12/15 02:14:04;;;;;;;29.30;19.67;;;;;;;;;;5086185;28;20235;-67
2021/12/15 02:16:31;;;;;;;32.90;20.85;;;;;;;;;;5073512;28;20606;-67
2021/12/15 02:18:58;;;;;;;32.85;21.00;;;;;;;;;;5066822;28;20650;-67
2021/12/15 02:21:26;;;;;;;32.42;21.65;;;;;;;;;;5066569;28;20389;-67
2021/12/15 02:23:57;;;;;;;34.28;21.58;;;;;;;;;;5066652;28;20189;-65
2021/12/15 02:26:24;;;;;;;32.10;21.50;;;;;;;;;;5077117;28;20184;-69
2021/12/15 02:28:53;;;;;;;31.40;21.00;;;;;;;;;;5086385;28;20242;-68
2021/12/15 02:31:34;;;;;;;33.67;22.23;;;;;;;;;;5086232;28;20500;-67
2021/12/15 02:34:09;;;;;;;35.08;22.17;;;;;;;;;;5086124;28;20283;-67
2021/12/15 02:39:35;;;;;;;31.52;20.08;;;;;;;;;;5077223;28;20208;-67
2021/12/15 02:42:01;;;;;;;32.15;21.08;;;;;;;;;;5085385;28;20242;-64
2021/12/15 02:44:28;;;;;;;35.10;20.65;;;;;;;;;;5075752;28;20185;-64
2021/12/15 02:46:55;;;;;;;32.20;20.50;;;;;;;;;;5076560;28;20193;-64
2021/12/15 02:49:22;;;;;;;32.00;19.98;;;;;;;;;;5084674;28;20196;-64
2021/12/15 02:51:51;;;;;;;28.15;19.30;;;;;;;;;;5085277;28;20481;-64
2021/12/15 02:54:19;;;;;;;29.80;20.55;;;;;;;;;;5085432;28;20243;-67
2021/12/15 02:56:46;;;;;;;31.23;21.00;;;;;;;;;;5085216;28;20197;-67
2021/12/15 02:59:15;;;;;;;31.55;20.42;;;;;;;;;;5085524;28;20413;-69
2021/12/15 03:01:55;;;;;;;28.23;19.40;;;;;;;;;;5085674;28;20193;-69
2021/12/15 03:04:30;;;;;;;28.05;18.95;;;;;;;;;;5084431;28;20208;-69
2021/12/15 03:07:05;;;;;;;26.27;19.05;;;;;;;;;;5071965;28;20222;-66
2021/12/15 03:18:01;;;;;;;30.38;20.05;;;;;;;;;;5064622;28;20181;-67
2021/12/15 03:20:28;;;;;;;29.40;19.48;;;;;;;;;;5064581;28;20484;-67
2021/12/15 03:22:56;;;;;;;27.42;19.35;;;;;;;;;;5064532;28;20268;-67
2021/12/15 03:25:24;;;;;;;28.13;19.58;;;;;;;;;;5073571;28;20193;-66
2021/12/15 03:36:08;;;;;;;28.83;19.65;;;;;;;;;;5079028;28;20204;-69
2021/12/15 03:38:36;;;;;;;31.80;19.42;;;;;;;;;;5084028;28;20204;-69
2021/12/15 03:41:03;;;;;;;28.80;18.58;;;;;;;;;;5083808;28;20403;-69
2021/12/15 03:43:31;;;;;;;27.52;19.52;;;;;;;;;;5084176;28;20546;-69
2021/12/15 03:45:59;;;;;;;29.63;19.60;;;;;;;;;;5069565;28;20225;-69
2021/12/15 03:48:26;;;;;;;26.33;18.40;;;;;;;;;;5064006;28;20399;-69
2021/12/15 03:50:54;;;;;;;29.63;19.15;;;;;;;;;;5063808;28;20197;-69
2021/12/15 03:53:20;;;;;;;30.80;19.58;;;;;;;;;;5063567;28;20268;-69
2021/12/15 03:55:48;;;;;;;27.00;18.40;;;;;;;;;;5075602;28;20208;-69
2021/12/15 03:58:15;;;;;;;27.30;18.77;;;;;;;;;;5076212;28;20474;-69
2021/12/15 04:00:44;;;;;;;30.77;20.17;;;;;;;;;;5063423;28;20189;-68
2021/12/15 04:03:16;;;;;;;28.88;19.08;;;;;;;;;;5070835;28;20234;-68
2021/12/15 04:05:43;;;;;;;28.42;19.05;;;;;;;;;;5083295;28;20180;-68
2021/12/15 04:08:09;;;;;;;27.48;18.40;;;;;;;;;;5083573;28;20197;-68
2021/12/15 04:10:36;;;;;;;27.92;18.38;;;;;;;;;;5083714;28;20197;-68
2021/12/15 04:13:04;;;;;;;31.38;19.85;;;;;;;;;;5077833;28;20198;-68
2021/12/15 04:15:42;;;;;;;25.30;17.60;;;;;;;;;;5062528;28;20262;-68
2021/12/15 04:18:11;;;;;;;27.00;19.88;;;;;;;;;;5063389;28;20196;-68
2021/12/15 04:20:38;;;;;;;29.23;19.20;;;;;;;;;;5063409;28;20373;-68
2021/12/15 04:23:05;;;;;;;28.40;19.20;;;;;;;;;;5068679;28;20462;-69
2021/12/15 04:25:33;;;;;;;29.60;19.35;;;;;;;;;;5081621;28;20199;-69
2021/12/15 04:28:01;;;;;;;28.83;18.52;;;;;;;;;;5063386;28;20197;-69
2021/12/15 04:30:31;;;;;;;25.48;17.17;;;;;;;;;;5063194;28;20197;-69
2021/12/15 04:32:58;;;;;;;25.75;18.52;;;;;;;;;;5067164;28;20193;-69
2021/12/15 04:35:25;;;;;;;24.90;17.38;;;;;;;;;;5082749;28;20222;-69
2021/12/15 04:37:52;;;;;;;28.77;18.33;;;;;;;;;;5083327;28;20492;-69
2021/12/15 04:40:20;;;;;;;25.10;17.35;;;;;;;;;;5083034;28;20399;-69
2021/12/15 04:42:47;;;;;;;27.17;18.77;;;;;;;;;;5080104;28;20396;-69
2021/12/15 04:45:14;;;;;;;26.50;17.45;;;;;;;;;;5062571;28;20213;-69
2021/12/15 04:47:42;;;;;;;24.70;16.55;;;;;;;;;;5062784;28;20193;-69
2021/12/15 04:50:09;;;;;;;26.80;18.67;;;;;;;;;;5062946;28;20516;-69
2021/12/15 04:52:36;;;;;;;27.20;16.92;;;;;;;;;;5063156;28;20465;-69
2021/12/15 04:55:04;;;;;;;25.25;17.27;;;;;;;;;;5082933;28;20392;-69
2021/12/15 04:57:31;;;;;;;27.83;17.77;;;;;;;;;;5082655;28;20204;-69
2021/12/15 04:59:57;;;;;;;27.23;17.95;;;;;;;;;;5082888;28;20196;-69
2021/12/15 05:02:24;;;;;;;25.05;16.95;;;;;;;;;;5082523;28;20196;-69
2021/12/15 05:04:53;;;;;;;26.30;17.27;;;;;;;;;;5063154;28;20193;-67
2021/12/15 05:07:20;;;;;;;28.38;18.85;;;;;;;;;;5062722;28;20215;-67
2021/12/15 05:09:49;;;;;;;26.65;17.20;;;;;;;;;;5062581;28;20504;-67
2021/12/15 05:12:16;;;;;;;25.95;17.25;;;;;;;;;;5062690;28;20197;-67
2021/12/15 05:14:42;;;;;;;24.08;16.75;;;;;;;;;;5079628;28;20219;-67
2021/12/15 05:17:09;;;;;;;26.33;18.23;;;;;;;;;;5082981;28;20361;-67
2021/12/15 05:19:36;;;;;;;27.10;17.48;;;;;;;;;;5080700;28;20196;-67
2021/12/15 05:22:05;;;;;;;23.35;16.70;;;;;;;;;;5062687;28;20197;-67
2021/12/15 05:24:32;;;;;;;25.38;16.63;;;;;;;;;;5062111;28;20193;-67
2021/12/15 05:27:00;;;;;;;30.88;19.92;;;;;;;;;;5061844;28;20508;-67
2021/12/15 05:29:27;;;;;;;26.42;17.83;;;;;;;;;;5062219;28;20240;-67
2021/12/15 05:31:53;;;;;;;25.63;17.60;;;;;;;;;;5079522;28;20492;-67
2021/12/15 05:34:20;;;;;;;23.92;16.50;;;;;;;;;;5082099;28;20319;-67
2021/12/15 05:36:46;;;;;;;30.48;18.27;;;;;;;;;;5082077;28;20196;-67
2021/12/15 05:39:14;;;;;;;24.83;17.05;;;;;;;;;;5082377;28;20196;-67
2021/12/15 05:41:41;;;;;;;24.85;17.52;;;;;;;;;;5080164;28;20211;-67
2021/12/15 05:44:07;;;;;;;24.63;16.88;;;;;;;;;;5062284;28;20204;-67
2021/12/15 05:46:34;;;;;;;24.80;17.42;;;;;;;;;;5063103;28;20224;-67
2021/12/15 05:49:00;;;;;;;26.70;17.25;;;;;;;;;;5061869;28;20466;-67
2021/12/15 05:51:26;;;;;;;24.80;16.45;;;;;;;;;;5062065;28;20387;-67
2021/12/15 05:53:53;;;;;;;22.60;16.00;;;;;;;;;;5078710;28;20242;-67
2021/12/15 05:56:21;;;;;;;22.83;15.75;;;;;;;;;;5081718;28;20196;-67
2021/12/15 05:58:48;;;;;;;23.25;16.05;;;;;;;;;;5082215;28;20188;-67
2021/12/15 06:01:14;;;;;;;22.65;15.85;;;;;;;;;;5082323;28;20197;-67
2021/12/15 06:03:41;;;;;;;21.30;14.98;;;;;;;;;;5067038;28;20197;-67
2021/12/15 06:06:08;;;;;;;21.02;15.02;;;;;;;;;;5061649;28;20193;-68
2021/12/15 06:08:35;;;;;;;19.20;14.15;;;;;;;;;;5061784;28;20197;-67
2021/12/15 06:11:02;;;;;;;19.40;14.07;;;;;;;;;;5061792;28;20197;-67
2021/12/15 06:13:30;;;;;;;18.98;13.35;;;;;;;;;;5074284;28;20200;-67
2021/12/15 06:15:57;;;;;;;18.23;13.50;;;;;;;;;;5081826;28;20266;-67
2021/12/15 06:18:23;;;;;;;19.42;13.40;;;;;;;;;;5082081;28;20243;-67
2021/12/15 06:20:51;;;;;;;17.52;13.50;;;;;;;;;;5082049;28;20196;-67
2021/12/15 06:23:19;;;;;;;16.80;12.63;;;;;;;;;;5080164;28;20197;-67
2021/12/15 06:25:48;;;;;;;19.20;13.40;;;;;;;;;;5081441;28;20263;-67
2021/12/15 06:28:15;;;;;;;20.85;13.48;;;;;;;;;;5081487;28;20267;-67
2021/12/15 06:30:44;;;;;;;19.83;14.10;;;;;;;;;;5075291;28;20200;-67
2021/12/15 06:33:11;;;;;;;22.38;14.18;;;;;;;;;;5071465;28;20203;-65
2021/12/15 06:35:37;;;;;;;20.27;12.93;;;;;;;;;;5081166;28;20216;-65
2021/12/15 06:38:04;;;;;;;17.90;12.70;;;;;;;;;;5081561;28;20197;-65
2021/12/15 06:40:30;;;;;;;18.73;12.57;;;;;;;;;;5085144;28;20196;-65
2021/12/15 06:42:57;;;;;;;16.42;12.45;;;;;;;;;;5077509;28;20303;-65
2021/12/15 06:45:31;;;;;;;14.48;12.32;;;;;;;;;;5064705;28;20213;-65
2021/12/15 06:59:11;;;;;;;14.80;12.18;;;;;;;;;;5060711;28;20203;-66
2021/12/15 07:01:38;;;;;;;15.57;12.15;;;;;;;;;;5084768;28;20204;-66
2021/12/15 07:04:05;;;;;;;20.88;13.20;;;;;;;;;;5068526;28;20198;-66
2021/12/15 07:06:32;;;;;;;18.15;12.35;;;;;;;;;;5064437;28;20193;-66
2021/12/15 07:08:58;;;;;;;15.07;11.95;;;;;;;;;;5064939;28;20502;-67
2021/12/15 07:11:25;;;;;;;16.30;11.40;;;;;;;;;;5065041;28;20197;-67
2021/12/15 07:13:51;;;;;;;14.23;11.00;;;;;;;;;;5082504;28;20196;-67
2021/12/15 07:16:19;;;;;;;16.25;11.50;;;;;;;;;;5079616;28;20216;-66
2021/12/15 07:18:52;;;;;;;14.90;10.90;;;;;;;;;;5084478;28;20284;-67
2021/12/15 07:21:22;;;;;;;15.85;12.00;;;;;;;;;;5083776;28;20189;-67
2021/12/15 07:23:49;;;;;;;15.07;11.85;;;;;;;;;;5083822;28;20203;-67
2021/12/15 07:26:16;;;;;;;14.68;11.02;;;;;;;;;;5072145;28;20420;-67
2021/12/15 07:28:42;;;;;;;13.23;11.25;;;;;;;;;;5064480;28;20197;-67
2021/12/15 07:31:09;;;;;;;11.90;10.35;;;;;;;;;;5066641;28;20189;-67
2021/12/15 07:33:35;;;;;;;12.57;10.85;;;;;;;;;;5084755;28;20358;-67
2021/12/15 07:36:03;;;;;;;14.23;10.88;;;;;;;;;;5083911;28;20246;-67
2021/12/15 07:38:31;;;;;;;17.48;9.35;;;;;;;;;;5084128;28;20200;-67
2021/12/15 07:40:58;;;;;;;12.95;9.75;;;;;;;;;;5083765;28;20504;-67
2021/12/15 07:43:27;;;;;;;11.45;10.20;;;;;;;;;;5069361;28;20193;-67
2021/12/15 07:45:56;;;;;;;12.52;9.90;;;;;;;;;;5083594;28;20213;-66
2021/12/15 07:48:23;;;;;;;10.93;9.75;;;;;;;;;;5083261;28;20201;-58
2021/12/15 07:50:51;;;;;;;11.23;9.35;;;;;;;;;;5075075;28;20748;-56
2021/12/15 07:53:18;;;;;;;12.68;9.90;;;;;;;;;;5068995;28;20224;-55
2021/12/15 07:55:46;;;;;;;9.93;8.85;;;;;;;;;;5069885;28;20270;-54
2021/12/15 07:58:13;;;;;;;10.77;8.32;;;;;;;;;;5063794;28;20208;-55
2021/12/15 08:00:41;;;;;;;10.00;8.77;;;;;;;;;;5058370;28;20216;-56
2021/12/15 08:03:08;;;;;;;8.98;8.07;;;;;;;;;;5057658;28;20216;-58
2021/12/15 08:05:35;;;;;;;8.80;7.45;;;;;;;;;;5057319;28;20205;-58
2021/12/15 08:08:02;;;;;;;8.88;7.35;;;;;;;;;;5063578;28;20558;-58
2021/12/15 08:10:29;;;;;;;8.00;6.90;;;;;;;;;;5073660;28;20295;-58
2021/12/15 08:12:57;;;;;;;8.05;6.43;;;;;;;;;;5076720;28;20213;-60
2021/12/15 08:15:23;;;;;;;8.10;7.00;;;;;;;;;;5077658;28;20426;-59
2021/12/15 08:17:51;;;;;;;7.90;7.10;;;;;;;;;;5077581;28;20388;-58
2021/12/15 08:20:19;;;;;;;8.60;6.68;;;;;;;;;;5078370;28;20212;-58
2021/12/15 08:22:46;;;;;;;8.82;7.32;;;;;;;;;;5077118;28;20439;-57
2021/12/15 08:25:13;;;;;;;8.90;6.32;;;;;;;;;;5058479;28;20205;-59
2021/12/15 08:27:40;;;;;;;7.13;6.43;;;;;;;;;;5071869;28;20220;-59
2021/12/15 08:30:09;;;;;;;9.13;6.43;;;;;;;;;;5075946;28;20435;-59
2021/12/15 08:32:36;;;;;;;7.55;6.63;;;;;;;;;;5076837;28;20220;-59
2021/12/15 08:35:03;;;;;;;7.00;6.32;;;;;;;;;;5073721;28;20227;-60
2021/12/15 08:37:29;;;;;;;7.00;6.38;;;;;;;;;;5057566;28;20213;-59
2021/12/15 08:39:56;;;;;;;6.57;5.38;;;;;;;;;;5057416;28;20400;-59
2021/12/15 08:42:22;;;;;;;6.18;5.68;;;;;;;;;;5056838;28;20213;-56
2021/12/15 08:44:48;;;;;;;6.47;5.88;;;;;;;;;;5057005;28;20270;-58
2021/12/15 08:47:16;;;;;;;7.10;5.93;;;;;;;;;;5058855;28;20578;-60
2021/12/15 08:49:43;;;;;;;7.25;6.65;;;;;;;;;;5071523;28;20219;-59
2021/12/15 08:52:09;;;;;;;6.47;5.88;;;;;;;;;;5075805;28;20208;-59
2021/12/15 08:54:36;;;;;;;6.50;5.93;;;;;;;;;;5075454;28;20215;-60
2021/12/15 08:57:02;;;;;;;7.03;5.43;;;;;;;;;;5062488;28;20260;-59
2021/12/15 08:59:29;;;;;;;6.22;5.63;;;;;;;;;;5056354;28;20216;-58
2021/12/15 09:01:55;;;;;;;8.07;6.50;;;;;;;;;;5057001;28;20209;-59
2021/12/15 09:04:23;;;;;;;8.73;6.72;;;;;;;;;;5056002;28;20274;-60
2021/12/15 09:06:50;;;;;;;6.60;6.00;;;;;;;;;;5058095;28;20205;-60
2021/12/15 09:09:17;;;;;;;7.35;6.63;;;;;;;;;;5076035;28;20208;-59
2021/12/15 09:11:44;;;;;;;7.78;6.53;;;;;;;;;;5072695;28;20407;-60
2021/12/15 09:14:11;;;;;;;7.57;6.63;;;;;;;;;;5057453;28;20284;-59
2021/12/15 09:16:38;;;;;;;7.07;6.38;;;;;;;;;;5055392;28;20298;-56
2021/12/15 09:19:05;;;;;;;7.32;6.28;;;;;;;;;;5067615;28;20215;-56
2021/12/15 09:21:34;;;;;;;9.27;6.88;;;;;;;;;;5068315;28;20205;-56
2021/12/15 09:24:00;;;;;;;7.93;6.25;;;;;;;;;;5055607;28;20209;-56
2021/12/15 09:26:27;;;;;;;8.25;6.07;;;;;;;;;;5055505;28;20205;-55
2021/12/15 09:28:54;;;;;;;9.45;6.25;;;;;;;;;;5055867;28;20209;-54
2021/12/15 09:31:20;;;;;;;7.07;6.38;;;;;;;;;;5059939;28;20531;-55
2021/12/15 09:33:48;;;;;;;6.45;5.93;;;;;;;;;;5075153;28;20676;-55
2021/12/15 09:36:16;;;;;;;7.47;6.15;;;;;;;;;;5072287;28;20224;-56
2021/12/15 09:38:45;;;;;;;7.05;6.35;;;;;;;;;;5060281;28;20279;-55
2021/12/15 09:41:12;;;;;;;7.28;6.43;;;;;;;;;;5074647;28;20208;-56
2021/12/15 09:43:39;;;;;;;7.35;6.65;;;;;;;;;;5075141;28;20215;-54
2021/12/15 09:46:11;;;;;;;9.23;6.90;;;;;;;;;;5065373;28;20224;-55
2021/12/15 10:02:41;;;;;;;6.53;5.97;;;;;;;;;;5157135;27;20276;-55
2021/12/15 10:05:19;;;;;;;6.43;5.93;;;;;;;;;;5154537;27;20206;-55
2021/12/15 10:10:46;;;;;;;6.13;5.70;;;;;;;;;;5155021;27;20204;-55
2021/12/15 10:18:51;;;;;;;5.75;5.35;;;;;;;;;;5138260;27;20233;-54
2021/12/15 10:21:22;;;;;;;5.68;5.20;;;;;;;;;;5154850;27;20395;-55
2021/12/15 10:23:50;;;;;;;5.15;4.85;;;;;;;;;;5154712;27;20400;-55
2021/12/15 10:26:17;;;;;;;5.15;4.85;;;;;;;;;;5154344;27;20375;-57
2021/12/15 10:28:49;;;;;;;5.32;4.93;;;;;;;;;;5154770;27;20208;-54
2021/12/15 10:31:17;;;;;;;5.20;4.75;;;;;;;;;;5162302;27;20570;-54
2021/12/15 10:33:45;;;;;;;5.47;5.07;;;;;;;;;;5149948;27;20565;-53
2021/12/15 10:36:13;;;;;;;5.40;5.03;;;;;;;;;;5152846;27;20290;-55
2021/12/15 10:38:41;;;;;;;5.22;4.93;;;;;;;;;;5154406;27;20768;-54
2021/12/15 10:41:09;;;;;;;5.63;5.05;;;;;;;;;;5154500;27;20212;-55
2021/12/15 10:43:37;;;;;;;5.88;5.38;;;;;;;;;;5153898;27;20206;-55
2021/12/15 10:46:05;;;;;;;5.93;5.53;;;;;;;;;;5137715;27;20222;-56
2021/12/15 10:48:37;;;;;;;7.30;6.13;;;;;;;;;;5133766;28;20218;-54
2021/12/15 10:51:05;;;;;;;6.75;5.45;;;;;;;;;;5133484;28;20435;-53
2021/12/15 10:53:34;;;;;;;6.07;5.57;;;;;;;;;;5133215;28;20526;-56
2021/12/15 10:56:00;;;;;;;6.15;5.65;;;;;;;;;;5132668;27;20410;-56
2021/12/15 10:58:35;;;;;;;6.47;5.70;;;;;;;;;;5131717;27;20227;-55
2021/12/15 11:01:04;;;;;;;6.38;5.80;;;;;;;;;;5133102;28;20396;-55
2021/12/15 11:03:37;;;;;;;6.47;5.95;;;;;;;;;;5133263;27;20514;-54
2021/12/15 11:06:18;;;;;;;6.20;5.70;;;;;;;;;;5131801;27;20234;-54
2021/12/15 11:08:45;;;;;;;6.43;5.75;;;;;;;;;;5133107;28;20203;-55
2021/12/15 11:11:23;;;;;;;5.38;4.97;;;;;;;;;;5118797;28;20207;-55
2021/12/15 11:13:49;;;;;;;14.07;10.40;;;;;;;;;;5118757;28;20210;-54
2021/12/15 11:16:16;;;;;;;4.80;4.60;;;;;;;;;;5118464;28;20207;-54
2021/12/15 11:18:44;;;;;;;5.22;4.85;;;;;;;;;;5119081;28;20223;-55
2021/12/15 11:21:10;;;;;;;4.82;4.43;;;;;;;;;;5119303;28;20203;-54
2021/12/15 11:23:37;;;;;;;4.97;4.35;;;;;;;;;;5118708;28;20214;-55
2021/12/15 11:26:04;;;;;;;4.78;4.47;;;;;;;;;;5118656;28;20214;-55
2021/12/15 11:28:32;;;;;;;7.70;4.97;;;;;;;;;;5118645;28;20203;-54
2021/12/15 11:31:00;;;;;;;4.80;4.50;;;;;;;;;;5129363;27;20206;-55
2021/12/15 11:33:27;;;;;;;4.40;4.20;;;;;;;;;;5124976;27;20515;-56
2021/12/15 11:35:57;;;;;;;4.50;4.18;;;;;;;;;;5118322;28;20380;-56
2021/12/15 11:38:24;;;;;;;3.50;3.30;;;;;;;;;;5118932;28;20223;-55
2021/12/15 11:40:53;;;;;;;3.58;3.40;;;;;;;;;;5118596;28;20206;-54
2021/12/15 11:43:43;;;;;;;3.83;3.63;;;;;;;;;;5117719;28;20214;-53
2021/12/15 11:46:30;;;;;;;3.85;3.65;;;;;;;;;;5101386;28;20219;-55
2021/12/15 11:48:58;;;;;;;4.13;3.92;;;;;;;;;;5113168;28;20206;-52
2021/12/15 11:51:32;;;;;;;4.65;4.35;;;;;;;;;;5118087;28;20225;-53
2021/12/15 11:53:59;;;;;;;4.18;3.50;;;;;;;;;;5118227;28;20214;-54
2021/12/15 11:56:28;;;;;;;3.67;3.47;;;;;;;;;;5117532;28;20210;-55
2021/12/15 11:58:56;;;;;;;4.45;4.25;;;;;;;;;;5118260;28;20219;-55
2021/12/15 12:01:46;;;;;;;3.70;3.50;;;;;;;;;;5117875;28;20207;-54
2021/12/15 12:04:31;;;;;;;4.13;3.92;;;;;;;;;;5118300;28;20207;-55
2021/12/15 12:07:11;;;;;;;5.90;4.00;;;;;;;;;;5116126;28;20210;-55
2021/12/15 12:09:38;;;;;;;3.75;3.55;;;;;;;;;;5118142;28;20580;-53
2021/12/15 12:12:06;;;;;;;4.25;4.05;;;;;;;;;;5118117;28;20207;-55
2021/12/15 12:14:44;;;;;;;3.55;3.25;;;;;;;;;;5117513;28;20244;-55
2021/12/15 12:17:13;;;;;;;4.05;3.78;;;;;;;;;;5117748;28;20253;-54
2021/12/15 12:19:48;;;;;;;4.60;4.20;;;;;;;;;;5118213;28;20595;-54
2021/12/15 12:22:16;;;;;;;3.70;3.50;;;;;;;;;;5116600;28;20510;-55
2021/12/15 12:24:43;;;;;;;4.05;3.85;;;;;;;;;;5117594;28;20256;-55
2021/12/15 12:27:10;;;;;;;3.90;3.55;;;;;;;;;;5117533;28;20236;-53
2021/12/15 12:29:37;;;;;;;4.88;3.63;;;;;;;;;;5117620;28;20214;-55
2021/12/15 12:32:04;;;;;;;3.30;3.20;;;;;;;;;;5117166;28;20214;-53
2021/12/15 12:34:31;;;;;;;3.25;3.15;;;;;;;;;;5116291;28;20205;-55
2021/12/15 12:36:58;;;;;;;3.28;3.17;;;;;;;;;;5117507;28;20199;-55
2021/12/15 12:39:32;;;;;;;3.30;3.10;;;;;;;;;;5117555;28;20233;-54
2021/12/15 12:41:59;;;;;;;3.25;3.15;;;;;;;;;;5117658;28;20380;-55
2021/12/15 12:44:31;;;;;;;3.28;3.08;;;;;;;;;;5117250;28;20261;-56
2021/12/15 12:47:03;;;;;;;3.00;2.90;;;;;;;;;;5132290;27;20274;-54
2021/12/15 12:49:49;;;;;;;3.05;2.90;;;;;;;;;;5138074;27;20273;-54
2021/12/15 12:58:03;;;;;;;3.65;3.38;;;;;;;;;;5116354;28;20217;-54
2021/12/15 13:00:35;;;;;;;3.50;3.30;;;;;;;;;;5116859;28;20385;-57
2021/12/15 13:03:05;;;;;;;3.83;3.60;;;;;;;;;;5116714;28;20233;-54
2021/12/15 13:05:42;;;;;;;3.80;3.60;;;;;;;;;;5116115;28;20238;-54
2021/12/15 13:08:10;;;;;;;5.72;3.70;;;;;;;;;;5117207;28;20214;-55
2021/12/15 13:11:07;;;;;;;4.35;4.10;;;;;;;;;;5117173;28;20222;-56
2021/12/15 13:13:37;;;;;;;3.58;3.40;;;;;;;;;;5116887;28;20215;-55
2021/12/15 13:16:05;;;;;;;3.60;3.40;;;;;;;;;;5116216;28;20206;-55
2021/12/15 13:18:43;;;;;;;3.80;3.60;;;;;;;;;;5116551;28;20233;-54
2021/12/15 13:21:12;;;;;;;3.80;3.50;;;;;;;;;;5116913;28;20366;-53
2021/12/15 13:23:44;;;;;;;4.22;3.47;;;;;;;;;;5116577;28;20443;-54
2021/12/15 13:29:15;;;;;;;4.15;3.35;;;;;;;;;;5116330;28;20286;-55
2021/12/15 13:31:53;;;;;;;3.65;3.33;;;;;;;;;;5115995;27;20203;-55
2021/12/15 13:34:34;;;;;;;3.70;3.40;;;;;;;;;;5116006;28;20240;-54
2021/12/15 13:37:00;;;;;;;2.88;2.72;;;;;;;;;;5116547;28;20207;-55
2021/12/15 13:39:41;;;;;;;5.03;3.05;;;;;;;;;;5116837;28;20438;-54
2021/12/15 13:42:13;;;;;;;3.65;3.35;;;;;;;;;;5116372;28;20248;-56
2021/12/15 13:44:41;;;;;;;3.42;3.22;;;;;;;;;;5116285;28;20555;-61
2021/12/15 13:47:15;;;;;;;3.15;3.03;;;;;;;;;;5123804;28;20198;-60
2021/12/15 13:49:43;;;;;;;3.67;3.10;;;;;;;;;;5117910;28;20514;-60
2021/12/15 13:52:20;;;;;;;3.63;3.33;;;;;;;;;;5117843;28;20203;-61
2021/12/15 13:55:05;;;;;;;3.13;2.88;;;;;;;;;;5117443;28;20308;-61
2021/12/15 13:57:37;;;;;;;16.23;9.27;;;;;;;;;;5118622;28;20416;-61
2021/12/15 14:00:12;;;;;;;3.70;3.40;;;;;;;;;;5117897;28;20222;-60
2021/12/15 14:02:41;;;;;;;2.83;2.72;;;;;;;;;;5119128;28;20383;-59
2021/12/15 14:05:09;;;;;;;4.05;3.78;;;;;;;;;;5120651;28;20417;-60
2021/12/15 14:07:37;;;;;;;3.55;3.40;;;;;;;;;;5120880;28;20412;-60
2021/12/15 14:10:24;;;;;;;3.72;3.42;;;;;;;;;;5119593;28;20202;-60
2021/12/15 14:12:51;;;;;;;3.20;3.10;;;;;;;;;;5116324;28;20485;-59
2021/12/15 14:15:42;;;;;;;4.45;4.07;;;;;;;;;;5113227;28;20196;-60
2021/12/15 14:18:11;;;;;;;3.90;3.70;;;;;;;;;;5118993;28;20207;-61
2021/12/15 14:20:38;;;;;;;4.85;4.07;;;;;;;;;;5117695;28;20435;-60
2021/12/15 14:23:09;;;;;;;6.15;5.63;;;;;;;;;;5116397;28;20285;-60
2021/12/15 14:25:37;;;;;;;4.38;4.07;;;;;;;;;;5116687;28;20207;-60
2021/12/15 14:28:07;;;;;;;3.78;3.50;;;;;;;;;;5118072;28;20539;-60
2021/12/15 14:30:34;;;;;;;4.13;3.83;;;;;;;;;;5118827;28;20203;-59
2021/12/15 14:33:00;;;;;;;4.00;3.80;;;;;;;;;;5118380;28;20449;-60
2021/12/15 14:35:28;;;;;;;4.20;3.90;;;;;;;;;;5117566;28;20207;-60
2021/12/15 14:37:54;;;;;;;3.67;3.47;;;;;;;;;;5117771;28;20379;-59
2021/12/15 14:40:21;;;;;;;4.03;3.80;;;;;;;;;;5117255;28;20343;-58
2021/12/15 14:42:48;;;;;;;3.40;3.22;;;;;;;;;;5118260;28;20219;-58
2021/12/15 14:45:15;;;;;;;4.07;3.58;;;;;;;;;;5120148;28;20221;-59
2021/12/15 14:47:43;;;;;;;4.10;3.90;;;;;;;;;;5122356;28;20260;-59
2021/12/15 14:50:11;;;;;;;4.18;3.80;;;;;;;;;;5123262;28;20403;-59
2021/12/15 14:52:41;;;;;;;3.83;3.63;;;;;;;;;;5121312;28;20195;-59
2021/12/15 14:55:09;;;;;;;5.00;4.45;;;;;;;;;;5122371;28;20426;-59
2021/12/15 14:57:36;;;;;;;4.40;4.10;;;;;;;;;;5121903;28;20221;-60
2021/12/15 15:00:06;;;;;;;4.43;4.13;;;;;;;;;;5121387;28;20268;-59
2021/12/15 15:02:34;;;;;;;4.28;4.00;;;;;;;;;;5121009;28;20207;-59
2021/12/15 15:05:01;;;;;;;3.90;3.70;;;;;;;;;;5120620;28;20199;-59
2021/12/15 15:07:31;;;;;;;4.13;3.83;;;;;;;;;;5121613;28;20195;-59
2021/12/15 15:10:00;;;;;;;4.70;4.40;;;;;;;;;;5121377;28;20203;-59
2021/12/15 15:12:27;;;;;;;4.43;4.22;;;;;;;;;;5122476;28;20245;-59
2021/12/15 15:14:56;;;;;;;5.10;4.80;;;;;;;;;;5120960;28;20207;-59
2021/12/15 15:17:27;;;;;;;4.80;4.40;;;;;;;;;;5121211;28;20211;-59
2021/12/15 15:19:54;;;;;;;4.55;4.25;;;;;;;;;;5121064;28;20230;-59
2021/12/15 15:22:22;;;;;;;5.57;4.93;;;;;;;;;;5122138;28;20195;-60
2021/12/15 15:24:49;;;;;;;4.72;4.43;;;;;;;;;;5121090;28;20302;-60
2021/12/15 15:27:17;;;;;;;4.72;4.53;;;;;;;;;;5121062;28;20207;-62
2021/12/15 15:29:46;;;;;;;5.03;4.72;;;;;;;;;;5120522;28;20203;-60
2021/12/15 15:32:15;;;;;;;4.82;4.53;;;;;;;;;;5122044;28;20401;-59
2021/12/15 15:34:43;;;;;;;6.05;5.65;;;;;;;;;;5119966;28;20207;-59
2021/12/15 15:37:11;;;;;;;5.18;4.68;;;;;;;;;;5119065;28;20282;-58
2021/12/15 15:39:38;;;;;;;5.43;5.03;;;;;;;;;;5118431;28;20223;-57
2021/12/15 15:42:05;;;;;;;6.07;5.60;;;;;;;;;;5118432;28;20206;-54
2021/12/15 15:44:35;;;;;;;5.43;5.13;;;;;;;;;;5118333;28;20226;-55
2021/12/15 15:47:02;;;;;;;5.15;4.85;;;;;;;;;;5135282;27;20207;-61
2021/12/15 15:49:29;;;;;;;5.68;5.30;;;;;;;;;;5120363;27;20218;-67
2021/12/15 15:51:57;;;;;;;5.65;5.25;;;;;;;;;;5119353;28;20207;-67